Time;durP1;ratioP1;P1;durP2;ratioP2;P2;SDS_P1;SDS_P2;PMS_P1;PMS_P2;Temp;Humidity;BMP_temperature;BMP_pressure;BME280_temperature;BME280_humidity;BME280_pressure;Samples;Min_cycle;Max_cycle;Signal;HPM_P1;HPM_P2
2023/03/22 00:00:42;;;;;;;10.80;5.13;;;;;;;;;;4971079;28;20035;-66
2023/03/22 00:03:09;;;;;;;10.57;5.15;;;;;;;;;;4969922;28;20019;-66
2023/03/22 00:05:34;;;;;;;;;;;;;;;;;;4970199;28;20039;-68
2023/03/22 00:07:59;;;;;;;10.70;5.10;;;;;;;;;;4967386;28;19925;-65
2023/03/22 00:10:25;;;;;;;9.53;5.30;;;;;;;;;;4970170;28;20019;-66
2023/03/22 00:12:50;;;;;;;10.98;5.80;;;;;;;;;;4969297;28;20081;-65
2023/03/22 00:15:15;;;;;;;10.80;5.20;;;;;;;;;;4971145;28;20464;-67
2023/03/22 00:17:40;;;;;;;12.57;5.97;;;;;;;;;;4971476;28;20529;-65
2023/03/22 00:20:06;;;;;;;9.70;5.20;;;;;;;;;;4973336;28;20077;-65
2023/03/22 00:22:31;;;;;;;10.88;4.97;;;;;;;;;;4972617;28;20018;-66
2023/03/22 00:24:57;;;;;;;9.38;5.85;;;;;;;;;;4971595;28;20022;-65
2023/03/22 00:27:22;;;;;;;10.02;5.60;;;;;;;;;;4973763;28;20400;-65
2023/03/22 00:29:47;;;;;;;11.63;5.67;;;;;;;;;;4971910;28;20041;-65
2023/03/22 00:32:12;;;;;;;12.17;5.93;;;;;;;;;;4972547;28;20022;-66
2023/03/22 00:34:37;;;;;;;12.48;5.35;;;;;;;;;;4971350;28;20018;-69
2023/03/22 00:37:03;;;;;;;11.38;5.80;;;;;;;;;;4972411;28;20313;-65
2023/03/22 00:39:28;;;;;;;12.20;5.75;;;;;;;;;;4972506;28;20066;-66
2023/03/22 00:41:53;;;;;;;9.77;5.60;;;;;;;;;;4972120;28;20031;-66
2023/03/22 00:44:18;;;;;;;10.50;5.63;;;;;;;;;;4971722;28;20122;-64
2023/03/22 00:46:43;;;;;;;12.32;5.88;;;;;;;;;;4971038;28;20034;-66
2023/03/22 00:49:09;;;;;;;12.50;5.80;;;;;;;;;;4971743;28;20031;-66
2023/03/22 00:51:34;;;;;;;9.93;5.57;;;;;;;;;;4970361;28;20015;-66
2023/03/22 00:53:59;;;;;;;10.80;5.88;;;;;;;;;;4971936;28;20489;-65
2023/03/22 00:56:27;;;;;;;11.77;5.43;;;;;;;;;;4972279;28;20045;-66
2023/03/22 00:58:52;;;;;;;11.25;5.50;;;;;;;;;;4970275;28;20513;-67
2023/03/22 01:01:17;;;;;;;9.82;4.63;;;;;;;;;;4972013;28;20031;-65
2023/03/22 01:03:42;;;;;;;13.23;6.70;;;;;;;;;;4973400;28;20108;-67
2023/03/22 01:06:08;;;;;;;10.27;5.25;;;;;;;;;;4971213;28;20018;-66
2023/03/22 01:08:37;;;;;;;10.10;5.57;;;;;;;;;;4972560;28;20114;-70
2023/03/22 01:11:02;;;;;;;12.45;5.60;;;;;;;;;;4971950;28;20058;-66
2023/03/22 01:13:27;;;;;;;10.03;5.30;;;;;;;;;;4973732;28;20533;-66
2023/03/22 01:15:53;;;;;;;11.47;6.07;;;;;;;;;;4973283;28;20035;-65
2023/03/22 01:18:18;;;;;;;9.40;5.40;;;;;;;;;;4974435;28;20458;-67
2023/03/22 01:20:43;;;;;;;14.00;6.73;;;;;;;;;;4973612;28;20018;-66
2023/03/22 01:23:08;;;;;;;12.75;5.63;;;;;;;;;;4975482;28;20475;-65
2023/03/22 01:25:33;;;;;;;10.70;6.10;;;;;;;;;;4975704;28;20026;-64
2023/03/22 01:28:01;;;;;;;10.30;5.30;;;;;;;;;;4974432;28;20115;-65
2023/03/22 01:30:26;;;;;;;11.05;5.53;;;;;;;;;;4974504;28;20122;-64
2023/03/22 01:32:51;;;;;;;12.27;5.35;;;;;;;;;;4979215;28;20034;-64
2023/03/22 01:35:16;;;;;;;10.50;5.27;;;;;;;;;;4987131;28;20031;-65
2023/03/22 01:37:42;;;;;;;10.63;5.75;;;;;;;;;;4985110;28;20029;-66
2023/03/22 01:40:07;;;;;;;11.27;6.47;;;;;;;;;;4974338;28;20455;-66
2023/03/22 01:42:32;;;;;;;11.35;6.50;;;;;;;;;;4972191;28;20031;-66
2023/03/22 01:45:12;;;;;;;13.13;7.20;;;;;;;;;;4971776;28;20093;-67
2023/03/22 01:47:39;;;;;;;11.75;6.45;;;;;;;;;;4972002;28;20177;-66
2023/03/22 01:50:05;;;;;;;11.88;6.70;;;;;;;;;;4971770;28;20027;-64
2023/03/22 01:52:30;;;;;;;12.35;7.15;;;;;;;;;;4972948;28;20054;-65
2023/03/22 01:54:55;;;;;;;10.85;6.05;;;;;;;;;;4972634;28;20050;-68
2023/03/22 01:57:21;;;;;;;13.63;7.40;;;;;;;;;;4972717;28;20027;-67
2023/03/22 01:59:46;;;;;;;13.70;6.63;;;;;;;;;;4972749;28;20027;-67
2023/03/22 02:02:13;;;;;;;11.45;6.03;;;;;;;;;;4986605;28;20027;-67
2023/03/22 02:04:39;;;;;;;11.55;5.93;;;;;;;;;;4973259;28;20402;-67
2023/03/22 02:07:08;;;;;;;9.90;5.82;;;;;;;;;;4972208;28;20090;-64
2023/03/22 02:09:38;;;;;;;11.98;6.55;;;;;;;;;;4972599;28;20032;-65
2023/03/22 02:12:03;;;;;;;14.48;6.43;;;;;;;;;;4972576;28;20088;-65
2023/03/22 02:14:34;;;;;;;13.57;6.35;;;;;;;;;;4971668;28;20030;-65
2023/03/22 02:16:59;;;;;;;12.68;6.32;;;;;;;;;;4967400;28;20039;-65
2023/03/22 02:19:44;;;;;;;10.70;5.97;;;;;;;;;;4971959;28;20031;-65
2023/03/22 02:22:37;;;;;;;10.45;5.95;;;;;;;;;;4965409;28;20026;-65
2023/03/22 02:25:19;;;;;;;13.05;6.18;;;;;;;;;;4971430;28;20042;-63
2023/03/22 02:28:07;;;;;;;12.65;6.60;;;;;;;;;;4972914;28;20360;-64
2023/03/22 02:30:48;;;;;;;15.02;6.50;;;;;;;;;;4972383;28;20050;-65
2023/03/22 02:33:16;;;;;;;12.02;6.75;;;;;;;;;;4968102;28;20376;-65
2023/03/22 02:36:00;;;;;;;12.43;6.00;;;;;;;;;;4972082;28;20031;-64
2023/03/22 02:38:26;;;;;;;10.73;5.57;;;;;;;;;;4970981;28;20031;-63
2023/03/22 02:41:10;;;;;;;11.52;6.15;;;;;;;;;;4971406;28;20415;-63
2023/03/22 02:43:37;;;;;;;;;;;;;;;;;;4972977;28;20026;-66
2023/03/22 02:46:06;;;;;;;11.45;5.05;;;;;;;;;;4968669;28;19945;-64
2023/03/22 02:48:35;;;;;;;11.00;5.13;;;;;;;;;;4969601;28;20026;-63
2023/03/22 02:51:03;;;;;;;9.10;4.65;;;;;;;;;;4971495;28;20050;-66
2023/03/22 02:53:33;;;;;;;9.77;4.45;;;;;;;;;;4971119;28;20031;-66
2023/03/22 02:56:11;;;;;;;8.82;4.55;;;;;;;;;;4971031;28;20037;-66
2023/03/22 02:58:46;;;;;;;10.88;4.57;;;;;;;;;;4970279;28;20033;-65
2023/03/22 03:01:18;;;;;;;10.20;4.90;;;;;;;;;;4968813;28;20471;-66
2023/03/22 03:03:46;;;;;;;;;;;;;;;;;;4971901;28;20026;-63
2023/03/22 03:06:13;;;;;;;9.50;4.90;;;;;;;;;;4970345;28;19914;-65
2023/03/22 03:08:39;;;;;;;11.15;5.20;;;;;;;;;;4969724;28;20050;-66
2023/03/22 03:11:05;;;;;;;10.75;5.72;;;;;;;;;;4970749;28;20023;-65
2023/03/22 03:13:30;;;;;;;11.13;5.53;;;;;;;;;;4972080;28;20061;-66
2023/03/22 03:15:57;;;;;;;11.20;5.40;;;;;;;;;;4970399;28;20114;-66
2023/03/22 03:18:31;;;;;;;10.65;5.60;;;;;;;;;;4971810;28;20042;-64
2023/03/22 03:21:02;;;;;;;10.63;5.70;;;;;;;;;;4965268;28;20027;-62
2023/03/22 03:23:44;;;;;;;10.63;5.63;;;;;;;;;;4976216;28;20258;-65
2023/03/22 03:26:42;;;;;;;13.90;6.22;;;;;;;;;;4970316;28;20027;-66
2023/03/22 03:29:19;;;;;;;12.98;5.95;;;;;;;;;;4948866;28;20030;-66
2023/03/22 03:31:49;;;;;;;11.10;6.03;;;;;;;;;;4970094;28;20046;-67
2023/03/22 03:34:24;;;;;;;11.80;6.28;;;;;;;;;;4968868;28;20027;-66
2023/03/22 03:36:55;;;;;;;12.32;6.90;;;;;;;;;;4969378;28;20545;-66
2023/03/22 03:39:21;;;;;;;15.98;7.05;;;;;;;;;;4969764;28;20030;-65
2023/03/22 03:41:48;;;;;;;12.85;7.25;;;;;;;;;;4970574;28;20631;-65
2023/03/22 03:44:15;;;;;;;14.30;8.00;;;;;;;;;;4969708;28;20418;-65
2023/03/22 03:46:40;;;;;;;13.18;7.35;;;;;;;;;;4967571;28;20019;-67
2023/03/22 03:49:07;;;;;;;15.43;7.80;;;;;;;;;;4970239;28;20014;-66
2023/03/22 03:51:32;;;;;;;17.73;9.10;;;;;;;;;;4969874;28;20023;-65
2023/03/22 03:53:58;;;;;;;14.95;8.95;;;;;;;;;;4971571;28;20027;-65
2023/03/22 03:56:23;;;;;;;12.20;7.20;;;;;;;;;;4969625;28;20050;-66
2023/03/22 03:58:48;;;;;;;11.13;6.85;;;;;;;;;;4969422;28;20051;-65
2023/03/22 04:01:13;;;;;;;12.73;6.15;;;;;;;;;;4966651;28;20023;-64
2023/03/22 04:03:38;;;;;;;13.60;7.68;;;;;;;;;;4970542;28;20062;-66
2023/03/22 04:06:03;;;;;;;16.50;8.47;;;;;;;;;;4969802;28;20085;-67
2023/03/22 04:08:28;;;;;;;16.97;9.50;;;;;;;;;;4970659;28;20026;-66
2023/03/22 04:10:54;;;;;;;19.15;9.68;;;;;;;;;;4970462;28;20449;-66
2023/03/22 04:13:20;;;;;;;16.57;8.90;;;;;;;;;;4970640;28;20011;-67
2023/03/22 04:15:45;;;;;;;12.18;7.28;;;;;;;;;;4967969;28;20438;-66
2023/03/22 04:18:10;;;;;;;15.20;8.40;;;;;;;;;;4969012;28;20085;-66
2023/03/22 04:20:40;;;;;;;16.33;7.77;;;;;;;;;;4969249;28;20022;-65
2023/03/22 04:23:05;;;;;;;12.55;7.63;;;;;;;;;;4969910;28;20070;-65
2023/03/22 04:25:32;;;;;;;12.73;6.53;;;;;;;;;;4968524;28;20521;-66
2023/03/22 04:27:59;;;;;;;11.32;6.38;;;;;;;;;;4970240;28;20031;-64
2023/03/22 04:30:26;;;;;;;10.68;5.90;;;;;;;;;;4968952;28;20448;-66
2023/03/22 04:32:51;;;;;;;12.60;6.35;;;;;;;;;;4969861;28;20071;-66
2023/03/22 04:35:16;;;;;;;10.93;5.63;;;;;;;;;;4969252;28;20078;-66
2023/03/22 04:37:42;;;;;;;11.27;5.40;;;;;;;;;;4969903;28;20435;-66
2023/03/22 04:40:08;;;;;;;11.77;4.95;;;;;;;;;;4969342;28;20026;-64
2023/03/22 04:42:33;;;;;;;9.73;4.85;;;;;;;;;;4969342;28;20027;-66
2023/03/22 04:44:59;;;;;;;9.27;5.30;;;;;;;;;;4965292;28;20098;-65
2023/03/22 04:47:24;;;;;;;10.18;4.63;;;;;;;;;;4966334;28;20034;-68
2023/03/22 04:49:49;;;;;;;8.47;4.10;;;;;;;;;;4967527;28;20031;-66
2023/03/22 04:52:15;;;;;;;10.57;4.75;;;;;;;;;;4968924;28;20390;-67
2023/03/22 04:54:40;;;;;;;10.98;4.47;;;;;;;;;;4968244;28;20029;-67
2023/03/22 04:57:06;;;;;;;8.50;4.40;;;;;;;;;;4967582;28;20042;-65
2023/03/22 04:59:31;;;;;;;8.73;4.22;;;;;;;;;;4969247;28;20475;-64
2023/03/22 05:01:56;;;;;;;11.48;4.85;;;;;;;;;;4969862;28;20023;-66
2023/03/22 05:04:21;;;;;;;8.90;4.07;;;;;;;;;;4968507;28;20030;-65
2023/03/22 05:06:47;;;;;;;9.52;4.10;;;;;;;;;;4970567;28;20070;-65
2023/03/22 05:09:12;;;;;;;8.77;4.83;;;;;;;;;;4969827;28;20026;-65
2023/03/22 05:11:39;;;;;;;7.73;4.07;;;;;;;;;;4985392;28;20047;-68
2023/03/22 05:14:04;;;;;;;8.00;4.00;;;;;;;;;;4977386;28;20029;-66
2023/03/22 05:16:29;;;;;;;8.67;4.13;;;;;;;;;;4973180;28;20015;-65
2023/03/22 05:18:55;;;;;;;9.43;4.97;;;;;;;;;;4974158;28;20439;-66
2023/03/22 05:21:26;;;;;;;9.45;4.75;;;;;;;;;;4976730;28;20136;-66
2023/03/22 05:23:52;;;;;;;9.57;4.75;;;;;;;;;;4970881;28;20038;-65
2023/03/22 05:26:19;;;;;;;9.65;4.75;;;;;;;;;;4970091;28;20027;-66
2023/03/22 05:28:44;;;;;;;9.02;4.43;;;;;;;;;;4969748;28;20030;-68
2023/03/22 05:31:13;;;;;;;7.40;3.92;;;;;;;;;;4967842;28;20026;-64
2023/03/22 05:33:38;;;;;;;7.75;4.20;;;;;;;;;;4966924;28;20027;-67
2023/03/22 05:36:03;;;;;;;8.50;4.40;;;;;;;;;;4966978;28;20030;-67
2023/03/22 05:38:29;;;;;;;6.93;4.10;;;;;;;;;;4971252;28;20053;-64
2023/03/22 05:40:54;;;;;;;9.83;5.07;;;;;;;;;;4973999;28;20038;-66
2023/03/22 05:43:20;;;;;;;9.23;4.43;;;;;;;;;;4973070;28;20057;-66
2023/03/22 05:45:45;;;;;;;8.45;4.15;;;;;;;;;;4970310;28;20052;-66
2023/03/22 05:48:10;;;;;;;8.85;4.40;;;;;;;;;;4977144;28;20015;-66
2023/03/22 05:50:35;;;;;;;9.50;4.30;;;;;;;;;;4969100;28;20027;-66
2023/03/22 05:53:02;;;;;;;8.83;4.77;;;;;;;;;;4969660;28;20869;-66
2023/03/22 05:55:30;;;;;;;7.03;4.05;;;;;;;;;;4969324;28;20551;-64
2023/03/22 05:57:55;;;;;;;8.02;4.28;;;;;;;;;;4972280;28;20030;-65
2023/03/22 06:00:22;;;;;;;11.23;4.90;;;;;;;;;;4971198;28;20463;-67
2023/03/22 06:02:49;;;;;;;10.77;5.30;;;;;;;;;;4970224;28;20042;-64
2023/03/22 06:05:14;;;;;;;10.85;6.10;;;;;;;;;;4960422;28;20035;-67
2023/03/22 06:07:40;;;;;;;9.57;5.00;;;;;;;;;;4964499;28;20673;-66
2023/03/22 06:10:06;;;;;;;9.13;5.10;;;;;;;;;;4969328;28;20027;-65
2023/03/22 06:12:31;;;;;;;10.57;5.07;;;;;;;;;;4968437;28;20478;-66
2023/03/22 06:14:56;;;;;;;8.93;4.40;;;;;;;;;;4968914;28;20031;-67
2023/03/22 06:17:22;;;;;;;7.97;3.80;;;;;;;;;;4966273;28;20490;-61
2023/03/22 06:19:48;;;;;;;9.00;4.43;;;;;;;;;;4970859;28;20054;-65
2023/03/22 06:22:13;;;;;;;7.80;4.13;;;;;;;;;;4972927;28;20015;-66
2023/03/22 06:24:39;;;;;;;8.07;4.32;;;;;;;;;;4969139;28;20026;-67
2023/03/22 06:27:05;;;;;;;7.85;3.97;;;;;;;;;;4972293;28;20029;-63
2023/03/22 06:29:30;;;;;;;7.32;4.15;;;;;;;;;;4972463;28;20035;-65
2023/03/22 06:31:55;;;;;;;12.77;4.83;;;;;;;;;;4973233;28;20077;-66
2023/03/22 06:34:20;;;;;;;9.20;4.60;;;;;;;;;;4972923;28;20030;-66
2023/03/22 06:36:45;;;;;;;9.07;4.78;;;;;;;;;;4973041;28;20105;-66
2023/03/22 06:39:11;;;;;;;10.10;5.00;;;;;;;;;;4973210;28;20050;-66
2023/03/22 06:41:36;;;;;;;7.83;4.37;;;;;;;;;;4973321;28;20378;-65
2023/03/22 06:44:01;;;;;;;8.27;4.00;;;;;;;;;;4974344;28;20107;-65
2023/03/22 06:46:26;;;;;;;8.05;4.00;;;;;;;;;;4973475;28;20071;-65
2023/03/22 06:48:52;;;;;;;11.07;4.10;;;;;;;;;;4968499;28;20034;-66
2023/03/22 06:51:17;;;;;;;8.67;4.23;;;;;;;;;;4971851;28;20026;-65
2023/03/22 06:53:42;;;;;;;9.27;4.30;;;;;;;;;;4974051;28;20109;-64
2023/03/22 06:56:07;;;;;;;8.43;4.22;;;;;;;;;;4972149;28;20023;-65
2023/03/22 06:58:32;;;;;;;10.73;3.90;;;;;;;;;;4972215;28;20026;-65
2023/03/22 07:00:58;;;;;;;8.67;4.27;;;;;;;;;;4972692;28;20047;-65
2023/03/22 07:03:23;;;;;;;7.97;4.03;;;;;;;;;;4973898;28;20022;-65
2023/03/22 07:05:48;;;;;;;8.13;4.20;;;;;;;;;;4971921;28;20026;-66
2023/03/22 07:08:13;;;;;;;8.07;4.00;;;;;;;;;;4969152;28;20065;-66
2023/03/22 07:10:38;;;;;;;6.57;3.67;;;;;;;;;;4970973;28;20023;-65
2023/03/22 07:13:04;;;;;;;8.63;4.07;;;;;;;;;;4972211;28;20026;-65
2023/03/22 07:15:29;;;;;;;7.70;3.67;;;;;;;;;;4968369;28;20019;-66
2023/03/22 07:17:54;;;;;;;9.02;4.18;;;;;;;;;;4970274;28;20481;-64
2023/03/22 07:20:20;;;;;;;8.43;3.83;;;;;;;;;;4969918;28;20018;-67
2023/03/22 07:22:45;;;;;;;7.90;4.05;;;;;;;;;;4970277;28;20493;-66
2023/03/22 07:25:10;;;;;;;9.55;3.90;;;;;;;;;;4970023;28;20038;-66
2023/03/22 07:27:35;;;;;;;8.37;4.00;;;;;;;;;;4971878;28;20027;-66
2023/03/22 07:30:01;;;;;;;7.97;4.22;;;;;;;;;;4970586;28;21819;-66
2023/03/22 07:32:26;;;;;;;9.82;4.43;;;;;;;;;;4970063;28;20027;-65
2023/03/22 07:34:51;;;;;;;8.57;3.80;;;;;;;;;;4969342;28;20057;-64
2023/03/22 07:37:16;;;;;;;7.63;4.10;;;;;;;;;;4970106;28;20368;-64
2023/03/22 07:39:41;;;;;;;7.97;4.18;;;;;;;;;;4970738;28;20244;-64
2023/03/22 07:42:08;;;;;;;9.43;4.33;;;;;;;;;;4970875;28;20030;-67
2023/03/22 07:44:33;;;;;;;9.07;3.90;;;;;;;;;;4971071;28;20448;-65
2023/03/22 07:46:58;;;;;;;10.77;4.67;;;;;;;;;;4968903;28;20026;-64
2023/03/22 07:49:24;;;;;;;8.77;4.00;;;;;;;;;;4971556;28;20019;-65
2023/03/22 07:51:49;;;;;;;7.45;3.70;;;;;;;;;;4972467;28;20038;-66
2023/03/22 07:54:14;;;;;;;9.52;4.38;;;;;;;;;;4972038;28;20035;-66
2023/03/22 07:56:41;;;;;;;7.30;3.97;;;;;;;;;;4972087;28;20054;-66
2023/03/22 07:59:06;;;;;;;8.82;4.45;;;;;;;;;;4972610;28;20097;-67
2023/03/22 08:01:32;;;;;;;9.18;4.22;;;;;;;;;;4971407;28;20047;-66
2023/03/22 08:03:57;;;;;;;7.75;3.88;;;;;;;;;;4990518;28;20030;-65
2023/03/22 08:06:22;;;;;;;8.67;4.00;;;;;;;;;;4990640;28;20030;-66
2023/03/22 08:08:47;;;;;;;8.05;4.20;;;;;;;;;;4991231;28;20046;-64
2023/03/22 08:11:13;;;;;;;10.07;4.50;;;;;;;;;;4989933;28;20018;-66
2023/03/22 08:13:38;;;;;;;8.73;4.00;;;;;;;;;;4991202;28;20023;-66
2023/03/22 08:16:04;;;;;;;9.00;4.00;;;;;;;;;;4983688;28;20061;-66
2023/03/22 08:18:30;;;;;;;6.82;3.75;;;;;;;;;;4971783;28;20035;-64
2023/03/22 08:20:55;;;;;;;8.25;3.53;;;;;;;;;;4971959;28;20038;-66
2023/03/22 08:23:22;;;;;;;9.07;3.60;;;;;;;;;;4971759;28;20022;-66
2023/03/22 08:25:47;;;;;;;6.93;3.10;;;;;;;;;;4971775;28;20125;-67
2023/03/22 08:28:13;;;;;;;7.03;3.05;;;;;;;;;;4973224;28;20051;-66
2023/03/22 08:30:38;;;;;;;8.30;2.42;;;;;;;;;;4972745;28;20046;-64
2023/03/22 08:33:03;;;;;;;7.30;2.30;;;;;;;;;;4971714;28;20058;-66
2023/03/22 08:35:29;;;;;;;7.20;2.13;;;;;;;;;;4971051;28;20027;-66
2023/03/22 08:37:54;;;;;;;5.43;2.00;;;;;;;;;;4975466;28;20586;-66
2023/03/22 08:40:21;;;;;;;5.22;1.80;;;;;;;;;;4973761;28;20037;-66
2023/03/22 08:42:46;;;;;;;6.65;1.98;;;;;;;;;;4975452;28;20042;-65
2023/03/22 08:45:11;;;;;;;6.00;2.20;;;;;;;;;;4975151;28;20474;-65
2023/03/22 08:47:37;;;;;;;4.80;1.70;;;;;;;;;;4977279;28;20022;-65
2023/03/22 08:50:02;;;;;;;5.88;1.80;;;;;;;;;;4981523;28;20027;-67
2023/03/22 08:52:27;;;;;;;4.57;1.67;;;;;;;;;;4975829;28;20491;-69
2023/03/22 08:54:53;;;;;;;5.03;1.70;;;;;;;;;;4975171;28;20093;-66
2023/03/22 08:57:20;;;;;;;5.07;2.00;;;;;;;;;;4974893;28;20042;-66
2023/03/22 08:59:46;;;;;;;5.25;1.70;;;;;;;;;;4975540;28;20042;-68
2023/03/22 09:02:11;;;;;;;5.23;1.67;;;;;;;;;;4975491;28;20467;-66
2023/03/22 09:04:36;;;;;;;4.53;1.40;;;;;;;;;;4974527;28;20065;-67
2023/03/22 09:07:01;;;;;;;6.05;1.60;;;;;;;;;;4975247;28;20031;-66
2023/03/22 09:09:26;;;;;;;5.18;1.50;;;;;;;;;;4976427;28;20394;-66
2023/03/22 09:11:51;;;;;;;5.30;1.60;;;;;;;;;;4975714;28;20030;-66
2023/03/22 09:14:17;;;;;;;5.15;1.55;;;;;;;;;;4975551;28;20493;-64
2023/03/22 09:16:42;;;;;;;3.80;1.27;;;;;;;;;;4974561;28;20047;-65
2023/03/22 09:19:07;;;;;;;4.00;1.20;;;;;;;;;;4974619;28;20127;-66
2023/03/22 09:21:32;;;;;;;4.07;1.50;;;;;;;;;;4974198;28;20034;-68
2023/03/22 09:23:57;;;;;;;3.57;1.10;;;;;;;;;;4974955;28;20077;-67
2023/03/22 09:26:23;;;;;;;4.80;1.10;;;;;;;;;;4974559;28;20044;-66
2023/03/22 09:28:48;;;;;;;3.50;1.20;;;;;;;;;;4975044;28;20023;-67
2023/03/22 09:31:14;;;;;;;3.85;1.20;;;;;;;;;;4974131;28;20483;-67
2023/03/22 09:33:40;;;;;;;4.15;1.20;;;;;;;;;;4974386;28;20474;-65
2023/03/22 09:36:05;;;;;;;3.70;1.10;;;;;;;;;;4958113;28;20024;-64
2023/03/22 09:38:32;;;;;;;4.10;1.10;;;;;;;;;;4955015;28;20036;-68
2023/03/22 09:40:59;;;;;;;3.47;1.17;;;;;;;;;;4957066;28;20023;-67
2023/03/22 09:43:26;;;;;;;4.25;1.13;;;;;;;;;;4973676;28;20015;-68
2023/03/22 09:45:51;;;;;;;4.10;1.20;;;;;;;;;;4973452;28;20034;-66
2023/03/22 09:48:27;;;;;;;3.37;1.20;;;;;;;;;;4972997;28;20383;-66
2023/03/22 09:50:54;;;;;;;6.40;1.40;;;;;;;;;;4974581;28;20030;-65
2023/03/22 09:53:21;;;;;;;4.55;1.20;;;;;;;;;;4974036;28;20105;-68
2023/03/22 09:55:52;;;;;;;3.85;1.10;;;;;;;;;;4973093;28;20394;-65
2023/03/22 09:58:24;;;;;;;3.55;1.20;;;;;;;;;;4973352;28;20133;-66
2023/03/22 10:01:01;;;;;;;4.25;1.30;;;;;;;;;;4973543;28;20026;-64
2023/03/22 10:03:37;;;;;;;3.75;1.10;;;;;;;;;;4973671;28;20026;-67
2023/03/22 10:06:29;;;;;;;4.38;0.93;;;;;;;;;;4973863;28;20035;-67
2023/03/22 10:09:03;;;;;;;3.05;0.90;;;;;;;;;;4973543;28;20046;-67
2023/03/22 10:11:28;;;;;;;6.50;1.52;;;;;;;;;;4973433;28;20026;-66
2023/03/22 10:13:59;;;;;;;3.13;1.00;;;;;;;;;;4973396;28;20050;-67
2023/03/22 10:16:31;;;;;;;4.90;0.90;;;;;;;;;;4972891;28;20531;-66
2023/03/22 10:19:01;;;;;;;3.70;0.90;;;;;;;;;;4973515;28;20367;-66
2023/03/22 10:21:28;;;;;;;4.18;0.82;;;;;;;;;;4972844;28;20026;-66
2023/03/22 10:23:54;;;;;;;3.75;0.90;;;;;;;;;;4973721;28;20027;-66
2023/03/22 10:26:32;;;;;;;3.53;0.98;;;;;;;;;;4974000;28;20038;-68
2023/03/22 10:29:04;;;;;;;4.40;0.90;;;;;;;;;;4975573;28;20054;-67
2023/03/22 10:31:30;;;;;;;3.28;0.95;;;;;;;;;;4974606;28;20027;-66
2023/03/22 10:33:57;;;;;;;4.25;0.80;;;;;;;;;;4977441;28;20015;-67
2023/03/22 10:36:25;;;;;;;3.25;0.75;;;;;;;;;;4977723;28;20034;-68
2023/03/22 10:38:59;;;;;;;6.13;0.88;;;;;;;;;;4978695;28;20023;-69
2023/03/22 10:41:25;;;;;;;3.78;0.80;;;;;;;;;;4979823;28;20015;-66
2023/03/22 10:43:58;;;;;;;3.88;0.90;;;;;;;;;;4979355;28;20038;-68
2023/03/22 10:46:25;;;;;;;2.92;0.82;;;;;;;;;;4979013;28;20035;-66
2023/03/22 10:48:51;;;;;;;3.63;1.00;;;;;;;;;;4980355;28;20031;-67
2023/03/22 10:51:19;;;;;;;3.92;1.10;;;;;;;;;;4980499;28;20081;-65
2023/03/22 10:53:46;;;;;;;2.85;0.77;;;;;;;;;;4974465;28;20026;-67
2023/03/22 10:56:14;;;;;;;4.22;0.98;;;;;;;;;;4972774;28;20019;-67
2023/03/22 10:58:39;;;;;;;3.08;0.80;;;;;;;;;;4973201;28;20023;-66
2023/03/22 11:01:06;;;;;;;2.77;0.90;;;;;;;;;;4972466;28;20106;-66
2023/03/22 11:03:35;;;;;;;3.75;0.80;;;;;;;;;;4972173;28;20455;-66
2023/03/22 11:06:03;;;;;;;3.60;0.90;;;;;;;;;;4972824;28;20050;-66
2023/03/22 11:08:38;;;;;;;2.92;0.70;;;;;;;;;;4974040;28;20038;-67
2023/03/22 11:11:06;;;;;;;3.42;0.77;;;;;;;;;;4973290;28;20401;-65
2023/03/22 11:13:32;;;;;;;2.83;0.82;;;;;;;;;;4972110;28;20034;-66
2023/03/22 11:16:00;;;;;;;4.50;0.80;;;;;;;;;;4971756;28;20019;-65
2023/03/22 11:18:29;;;;;;;3.30;0.70;;;;;;;;;;4972813;28;20050;-64
2023/03/22 11:20:56;;;;;;;4.10;0.73;;;;;;;;;;4985525;28;20030;-65
2023/03/22 11:23:22;;;;;;;3.45;0.90;;;;;;;;;;4976846;28;20127;-68
2023/03/22 11:25:49;;;;;;;2.80;0.80;;;;;;;;;;4982659;28;20014;-66
2023/03/22 11:28:22;;;;;;;4.63;1.02;;;;;;;;;;4993219;28;20022;-66
2023/03/22 11:30:58;;;;;;;4.05;0.98;;;;;;;;;;4983075;28;20031;-66
2023/03/22 11:33:26;;;;;;;3.45;1.00;;;;;;;;;;4971845;28;20418;-66
2023/03/22 11:35:55;;;;;;;4.45;0.90;;;;;;;;;;4971084;28;20023;-67
2023/03/22 11:38:40;;;;;;;4.28;0.98;;;;;;;;;;4972967;28;20026;-67
2023/03/22 11:41:07;;;;;;;3.05;0.82;;;;;;;;;;4972113;28;20076;-69
2023/03/22 11:43:47;;;;;;;3.03;0.80;;;;;;;;;;4990715;28;20084;-66
2023/03/22 11:46:14;;;;;;;3.13;0.90;;;;;;;;;;4974696;28;20130;-65
2023/03/22 11:48:40;;;;;;;2.33;0.70;;;;;;;;;;4972063;28;20037;-68
2023/03/22 11:51:14;;;;;;;4.68;0.80;;;;;;;;;;4971658;28;20031;-67
2023/03/22 11:53:40;;;;;;;3.95;0.90;;;;;;;;;;4971023;28;20596;-67
2023/03/22 11:56:07;;;;;;;2.95;0.80;;;;;;;;;;4971482;28;20031;-68
2023/03/22 11:58:36;;;;;;;2.25;0.70;;;;;;;;;;4971338;28;20150;-67
2023/03/22 12:01:02;;;;;;;2.60;0.80;;;;;;;;;;4971433;28;20516;-66
2023/03/22 12:03:29;;;;;;;2.60;0.73;;;;;;;;;;4975547;28;20025;-68
2023/03/22 12:05:55;;;;;;;4.38;1.35;;;;;;;;;;4991227;28;20386;-67
2023/03/22 12:08:27;;;;;;;2.55;0.80;;;;;;;;;;4987672;28;20030;-67
2023/03/22 12:10:54;;;;;;;2.63;0.73;;;;;;;;;;4974190;28;20026;-66
2023/03/22 12:13:23;;;;;;;2.60;0.70;;;;;;;;;;4978206;28;20437;-66
2023/03/22 12:15:53;;;;;;;3.60;0.80;;;;;;;;;;4975672;28;20027;-66
2023/03/22 12:18:27;;;;;;;4.72;0.90;;;;;;;;;;4977479;28;20499;-67
2023/03/22 12:20:54;;;;;;;2.65;0.70;;;;;;;;;;4977751;28;20505;-66
2023/03/22 12:23:21;;;;;;;2.67;0.60;;;;;;;;;;4978087;28;20023;-66
2023/03/22 12:25:49;;;;;;;2.40;0.68;;;;;;;;;;4979046;28;20109;-66
2023/03/22 12:28:16;;;;;;;3.53;0.80;;;;;;;;;;4978410;28;20021;-66
2023/03/22 12:30:44;;;;;;;1.92;0.70;;;;;;;;;;4977987;28;20014;-66
2023/03/22 12:33:25;;;;;;;2.75;0.80;;;;;;;;;;4977692;28;20414;-67
2023/03/22 12:35:52;;;;;;;2.50;0.68;;;;;;;;;;4977410;28;20110;-66
2023/03/22 12:38:27;;;;;;;3.97;0.90;;;;;;;;;;4976115;28;20033;-67
2023/03/22 12:40:54;;;;;;;2.70;0.70;;;;;;;;;;4977699;28;20011;-68
2023/03/22 12:43:37;;;;;;;4.43;0.70;;;;;;;;;;4977512;28;20047;-66
2023/03/22 12:46:04;;;;;;;2.42;0.73;;;;;;;;;;4976492;28;20030;-66
2023/03/22 12:48:37;;;;;;;2.70;0.63;;;;;;;;;;4983091;28;20049;-65
2023/03/22 12:51:06;;;;;;;3.05;0.70;;;;;;;;;;4977739;28;20154;-66
2023/03/22 12:53:41;;;;;;;4.05;0.77;;;;;;;;;;4976895;28;20078;-64
2023/03/22 12:56:07;;;;;;;2.17;0.80;;;;;;;;;;4976362;28;20058;-66
2023/03/22 12:58:32;;;;;;;2.17;0.60;;;;;;;;;;4977508;28;20554;-67
2023/03/22 13:00:58;;;;;;;3.67;0.80;;;;;;;;;;4976213;28;20117;-65
2023/03/22 13:03:28;;;;;;;4.47;0.88;;;;;;;;;;4976839;28;20457;-66
2023/03/22 13:06:02;;;;;;;2.83;0.80;;;;;;;;;;4976616;28;20035;-67
2023/03/22 13:08:47;;;;;;;2.97;0.70;;;;;;;;;;4977370;28;20434;-66
2023/03/22 13:11:21;;;;;;;2.90;0.80;;;;;;;;;;4977371;28;20179;-67
2023/03/22 13:13:47;;;;;;;2.38;0.70;;;;;;;;;;4977310;28;20102;-67
2023/03/22 13:16:14;;;;;;;2.87;0.80;;;;;;;;;;4977368;28;20106;-65
2023/03/22 13:18:42;;;;;;;3.40;0.90;;;;;;;;;;4977343;28;20026;-67
2023/03/22 13:21:08;;;;;;;3.90;1.10;;;;;;;;;;4976831;28;20026;-68
2023/03/22 13:23:33;;;;;;;4.43;1.10;;;;;;;;;;4972687;28;20058;-67
2023/03/22 13:26:00;;;;;;;4.63;0.85;;;;;;;;;;4973899;28;20030;-66
2023/03/22 13:28:26;;;;;;;1.90;0.60;;;;;;;;;;4974349;28;20026;-67
2023/03/22 13:30:52;;;;;;;4.82;1.00;;;;;;;;;;4974749;28;20037;-67
2023/03/22 13:33:19;;;;;;;;;;;;;;;;;;4977306;28;20042;-67
2023/03/22 13:35:47;;;;;;;4.18;1.00;;;;;;;;;;4973084;28;19910;-66
2023/03/22 13:38:20;;;;;;;2.90;0.80;;;;;;;;;;4974905;28;20383;-66
2023/03/22 13:40:48;;;;;;;3.75;0.88;;;;;;;;;;4974192;28;20023;-68
2023/03/22 13:43:22;;;;;;;2.95;0.85;;;;;;;;;;4974027;28;20105;-66
2023/03/22 13:46:02;;;;;;;3.13;0.80;;;;;;;;;;4973002;28;20102;-68
2023/03/22 13:48:39;;;;;;;3.25;0.95;;;;;;;;;;4973439;28;20409;-66
2023/03/22 13:51:10;;;;;;;3.10;0.98;;;;;;;;;;4973989;28;20015;-67
2023/03/22 13:53:36;;;;;;;3.38;0.80;;;;;;;;;;4973684;28;20078;-67
2023/03/22 13:56:05;;;;;;;3.45;0.95;;;;;;;;;;4973431;28;20517;-67
2023/03/22 13:58:35;;;;;;;3.40;0.95;;;;;;;;;;4974233;28;20026;-66
2023/03/22 14:01:02;;;;;;;2.33;0.90;;;;;;;;;;4973493;28;20114;-67
2023/03/22 14:03:33;;;;;;;2.83;0.75;;;;;;;;;;4973861;28;20046;-66
2023/03/22 14:06:18;;;;;;;4.13;0.85;;;;;;;;;;4973227;28;20030;-67
2023/03/22 14:08:46;;;;;;;3.40;0.80;;;;;;;;;;4973714;28;20041;-67
2023/03/22 14:11:27;;;;;;;2.75;0.90;;;;;;;;;;4975352;28;20027;-67
2023/03/22 14:13:55;;;;;;;4.35;0.80;;;;;;;;;;4983268;28;20028;-68
2023/03/22 14:16:21;;;;;;;4.63;0.82;;;;;;;;;;4972594;28;20033;-68
2023/03/22 14:18:47;;;;;;;2.90;1.00;;;;;;;;;;4972571;28;20026;-68
2023/03/22 14:21:12;;;;;;;3.25;0.90;;;;;;;;;;4973958;28;20434;-68
2023/03/22 14:23:42;;;;;;;3.53;1.00;;;;;;;;;;4973088;28;20023;-66
2023/03/22 14:26:14;;;;;;;3.00;0.70;;;;;;;;;;4972906;28;20062;-67
2023/03/22 14:28:40;;;;;;;;;;;;;;;;;;4973908;28;20022;-66
2023/03/22 14:31:06;;;;;;;4.13;0.80;;;;;;;;;;4973175;28;19906;-67
2023/03/22 14:33:36;;;;;;;2.75;0.80;;;;;;;;;;4972496;28;20075;-67
2023/03/22 14:36:03;;;;;;;2.92;0.80;;;;;;;;;;4972759;28;20058;-67
2023/03/22 14:38:33;;;;;;;2.75;0.82;;;;;;;;;;4971177;28;20022;-66
2023/03/22 14:41:06;;;;;;;3.28;0.80;;;;;;;;;;4973087;28;20483;-67
2023/03/22 14:43:32;;;;;;;3.75;1.00;;;;;;;;;;4971787;28;20030;-65